sensor_id;sensor_type;location;lat;lon;timestamp;temperature;humidity
292;DHT22;23311;48.776;9.162;2022-09-29T00:00:52;7.40;95.50
292;DHT22;23311;48.776;9.162;2022-09-29T00:03:21;7.50;95.50
292;DHT22;23311;48.776;9.162;2022-09-29T00:05:51;7.60;95.50
292;DHT22;23311;48.776;9.162;2022-09-29T00:08:21;7.70;95.50
292;DHT22;23311;48.776;9.162;2022-09-29T00:10:51;7.80;95.50
292;DHT22;23311;48.776;9.162;2022-09-29T00:13:20;7.70;95.50
292;DHT22;23311;48.776;9.162;2022-09-29T00:15:55;7.80;95.50
292;DHT22;23311;48.776;9.162;2022-09-29T00:18:24;7.70;95.50
292;DHT22;23311;48.776;9.162;2022-09-29T00:20:56;7.70;95.50
292;DHT22;23311;48.776;9.162;2022-09-29T00:23:24;7.70;95.50
292;DHT22;23311;48.776;9.162;2022-09-29T00:26:05;7.70;95.50
292;DHT22;23311;48.776;9.162;2022-09-29T00:28:33;7.70;95.50
292;DHT22;23311;48.776;9.162;2022-09-29T00:31:03;7.70;95.50
292;DHT22;23311;48.776;9.162;2022-09-29T00:33:34;7.80;95.50
292;DHT22;23311;48.776;9.162;2022-09-29T00:36:04;7.80;95.50
292;DHT22;23311;48.776;9.162;2022-09-29T00:38:32;7.90;95.50
292;DHT22;23311;48.776;9.162;2022-09-29T00:41:03;7.80;95.50
292;DHT22;23311;48.776;9.162;2022-09-29T00:43:54;7.80;95.50
292;DHT22;23311;48.776;9.162;2022-09-29T00:46:27;7.80;95.50
292;DHT22;23311;48.776;9.162;2022-09-29T00:49:00;7.80;95.50
292;DHT22;23311;48.776;9.162;2022-09-29T00:51:31;7.90;95.50
292;DHT22;23311;48.776;9.162;2022-09-29T00:54:00;8.00;95.50
292;DHT22;23311;48.776;9.162;2022-09-29T00:56:31;8.00;95.50
292;DHT22;23311;48.776;9.162;2022-09-29T00:59:02;8.00;95.50
292;DHT22;23311;48.776;9.162;2022-09-29T01:01:31;8.20;95.50
292;DHT22;23311;48.776;9.162;2022-09-29T01:04:03;8.20;95.50
292;DHT22;23311;48.776;9.162;2022-09-29T01:06:35;8.20;95.50
292;DHT22;23311;48.776;9.162;2022-09-29T01:09:07;8.20;95.50
292;DHT22;23311;48.776;9.162;2022-09-29T01:11:36;8.20;95.50
292;DHT22;23311;48.776;9.162;2022-09-29T01:14:06;8.30;95.50
292;DHT22;23311;48.776;9.162;2022-09-29T01:16:36;8.30;95.50
292;DHT22;23311;48.776;9.162;2022-09-29T01:19:07;8.40;95.50
292;DHT22;23311;48.776;9.162;2022-09-29T01:21:42;8.40;95.50
292;DHT22;23311;48.776;9.162;2022-09-29T01:24:53;8.40;95.50
292;DHT22;23311;48.776;9.162;2022-09-29T01:27:44;8.40;95.50
292;DHT22;23311;48.776;9.162;2022-09-29T01:30:19;8.40;95.50
292;DHT22;23311;48.776;9.162;2022-09-29T01:33:08;8.40;95.50
292;DHT22;23311;48.776;9.162;2022-09-29T01:35:49;8.40;95.50
292;DHT22;23311;48.776;9.162;2022-09-29T01:38:41;8.50;95.50
292;DHT22;23311;48.776;9.162;2022-09-29T01:41:17;8.50;95.50
292;DHT22;23311;48.776;9.162;2022-09-29T01:43:52;8.50;95.50
292;DHT22;23311;48.776;9.162;2022-09-29T01:46:24;8.50;95.50
292;DHT22;23311;48.776;9.162;2022-09-29T01:48:56;8.50;95.50
292;DHT22;23311;48.776;9.162;2022-09-29T01:51:28;8.50;95.50
292;DHT22;23311;48.776;9.162;2022-09-29T01:54:02;8.60;95.50
292;DHT22;23311;48.776;9.162;2022-09-29T01:56:34;8.60;95.50
292;DHT22;23311;48.776;9.162;2022-09-29T01:59:07;8.60;95.50
292;DHT22;23311;48.776;9.162;2022-09-29T02:01:40;8.60;95.50
292;DHT22;23311;48.776;9.162;2022-09-29T02:04:15;8.60;95.50
292;DHT22;23311;48.776;9.162;2022-09-29T02:06:48;8.70;95.50
292;DHT22;23311;48.776;9.162;2022-09-29T02:09:26;8.70;95.50
292;DHT22;23311;48.776;9.162;2022-09-29T02:11:56;8.70;95.50
292;DHT22;23311;48.776;9.162;2022-09-29T02:14:27;8.70;95.50
292;DHT22;23311;48.776;9.162;2022-09-29T02:17:00;8.80;95.50
292;DHT22;23311;48.776;9.162;2022-09-29T02:19:34;8.90;95.50
292;DHT22;23311;48.776;9.162;2022-09-29T02:22:03;8.90;95.50
292;DHT22;23311;48.776;9.162;2022-09-29T02:24:31;8.90;95.50
292;DHT22;23311;48.776;9.162;2022-09-29T02:26:59;9.00;95.50
292;DHT22;23311;48.776;9.162;2022-09-29T02:29:28;9.00;95.50
292;DHT22;23311;48.776;9.162;2022-09-29T02:31:57;8.90;95.50
292;DHT22;23311;48.776;9.162;2022-09-29T02:34:30;8.90;95.50
292;DHT22;23311;48.776;9.162;2022-09-29T02:37:07;9.00;95.50
292;DHT22;23311;48.776;9.162;2022-09-29T02:39:44;8.90;95.50
292;DHT22;23311;48.776;9.162;2022-09-29T02:42:26;8.90;95.50
292;DHT22;23311;48.776;9.162;2022-09-29T02:45:10;8.90;95.50
292;DHT22;23311;48.776;9.162;2022-09-29T02:48:04;8.90;95.50
292;DHT22;23311;48.776;9.162;2022-09-29T02:50:51;9.00;95.50
292;DHT22;23311;48.776;9.162;2022-09-29T02:53:34;8.90;95.50
292;DHT22;23311;48.776;9.162;2022-09-29T02:56:12;8.90;95.50
292;DHT22;23311;48.776;9.162;2022-09-29T02:58:50;8.90;95.50
292;DHT22;23311;48.776;9.162;2022-09-29T03:01:18;9.00;95.50
292;DHT22;23311;48.776;9.162;2022-09-29T03:03:47;8.90;95.50
292;DHT22;23311;48.776;9.162;2022-09-29T03:06:17;8.90;95.50
292;DHT22;23311;48.776;9.162;2022-09-29T03:08:48;8.90;95.50
292;DHT22;23311;48.776;9.162;2022-09-29T03:11:16;9.00;95.50
292;DHT22;23311;48.776;9.162;2022-09-29T03:13:44;8.90;95.50
292;DHT22;23311;48.776;9.162;2022-09-29T03:16:12;8.90;95.50
292;DHT22;23311;48.776;9.162;2022-09-29T03:18:40;8.80;95.50
292;DHT22;23311;48.776;9.162;2022-09-29T03:21:10;8.70;95.50
292;DHT22;23311;48.776;9.162;2022-09-29T03:23:38;8.70;95.50
292;DHT22;23311;48.776;9.162;2022-09-29T03:26:08;8.70;95.50
292;DHT22;23311;48.776;9.162;2022-09-29T03:28:36;8.70;95.50
292;DHT22;23311;48.776;9.162;2022-09-29T03:31:04;8.60;95.50
292;DHT22;23311;48.776;9.162;2022-09-29T03:33:33;8.60;95.50
292;DHT22;23311;48.776;9.162;2022-09-29T03:36:02;8.60;95.50
292;DHT22;23311;48.776;9.162;2022-09-29T03:38:31;8.50;95.50
292;DHT22;23311;48.776;9.162;2022-09-29T03:40:59;8.40;95.50
292;DHT22;23311;48.776;9.162;2022-09-29T03:43:29;8.20;95.50
292;DHT22;23311;48.776;9.162;2022-09-29T03:45:57;8.10;95.50
292;DHT22;23311;48.776;9.162;2022-09-29T03:48:25;7.80;95.50
292;DHT22;23311;48.776;9.162;2022-09-29T03:50:57;7.70;95.50
292;DHT22;23311;48.776;9.162;2022-09-29T03:53:25;7.50;95.50
292;DHT22;23311;48.776;9.162;2022-09-29T03:55:53;7.40;95.50
292;DHT22;23311;48.776;9.162;2022-09-29T03:58:21;7.30;95.50
292;DHT22;23311;48.776;9.162;2022-09-29T04:00:50;7.30;95.50
292;DHT22;23311;48.776;9.162;2022-09-29T04:03:19;7.30;95.50
292;DHT22;23311;48.776;9.162;2022-09-29T04:05:47;7.30;95.50
292;DHT22;23311;48.776;9.162;2022-09-29T04:08:15;7.40;95.50
292;DHT22;23311;48.776;9.162;2022-09-29T04:10:45;7.30;95.50
292;DHT22;23311;48.776;9.162;2022-09-29T04:13:14;7.40;95.50
292;DHT22;23311;48.776;9.162;2022-09-29T04:15:46;7.50;95.50
292;DHT22;23311;48.776;9.162;2022-09-29T04:18:15;7.40;95.50
292;DHT22;23311;48.776;9.162;2022-09-29T04:20:43;7.20;95.50
292;DHT22;23311;48.776;9.162;2022-09-29T04:23:11;7.30;95.50
292;DHT22;23311;48.776;9.162;2022-09-29T04:25:40;7.40;95.50
292;DHT22;23311;48.776;9.162;2022-09-29T04:28:08;7.40;95.50
292;DHT22;23311;48.776;9.162;2022-09-29T04:30:36;7.30;95.50
292;DHT22;23311;48.776;9.162;2022-09-29T04:33:04;7.30;95.50
292;DHT22;23311;48.776;9.162;2022-09-29T04:35:33;7.20;95.50
292;DHT22;23311;48.776;9.162;2022-09-29T04:38:02;7.30;95.50
292;DHT22;23311;48.776;9.162;2022-09-29T04:40:30;7.40;95.50
292;DHT22;23311;48.776;9.162;2022-09-29T04:42:59;7.60;95.50
292;DHT22;23311;48.776;9.162;2022-09-29T04:45:27;7.40;95.50
292;DHT22;23311;48.776;9.162;2022-09-29T04:47:55;7.20;95.50
292;DHT22;23311;48.776;9.162;2022-09-29T04:50:23;7.10;95.50
292;DHT22;23311;48.776;9.162;2022-09-29T04:52:53;7.00;95.50
292;DHT22;23311;48.776;9.162;2022-09-29T04:55:21;7.10;95.50
292;DHT22;23311;48.776;9.162;2022-09-29T04:57:49;7.00;95.50
292;DHT22;23311;48.776;9.162;2022-09-29T05:00:17;6.90;95.50
292;DHT22;23311;48.776;9.162;2022-09-29T05:02:46;6.90;95.50
292;DHT22;23311;48.776;9.162;2022-09-29T05:05:16;6.80;95.50
292;DHT22;23311;48.776;9.162;2022-09-29T05:07:44;6.80;95.50
292;DHT22;23311;48.776;9.162;2022-09-29T05:10:13;6.70;95.50
292;DHT22;23311;48.776;9.162;2022-09-29T05:12:46;6.60;95.50
292;DHT22;23311;48.776;9.162;2022-09-29T05:15:15;6.80;95.50
292;DHT22;23311;48.776;9.162;2022-09-29T05:17:49;6.90;95.50
292;DHT22;23311;48.776;9.162;2022-09-29T05:20:17;7.40;95.50
292;DHT22;23311;48.776;9.162;2022-09-29T05:22:45;7.60;95.50
292;DHT22;23311;48.776;9.162;2022-09-29T05:25:15;7.50;95.50
292;DHT22;23311;48.776;9.162;2022-09-29T05:27:43;7.30;95.50
292;DHT22;23311;48.776;9.162;2022-09-29T05:30:11;7.20;95.50
292;DHT22;23311;48.776;9.162;2022-09-29T05:32:41;7.30;95.50
292;DHT22;23311;48.776;9.162;2022-09-29T05:35:09;7.50;95.50
292;DHT22;23311;48.776;9.162;2022-09-29T05:37:37;7.40;95.50
292;DHT22;23311;48.776;9.162;2022-09-29T05:40:07;7.50;95.50
292;DHT22;23311;48.776;9.162;2022-09-29T05:42:37;7.50;95.50
292;DHT22;23311;48.776;9.162;2022-09-29T05:45:07;7.50;95.50
292;DHT22;23311;48.776;9.162;2022-09-29T05:47:40;7.40;95.50
292;DHT22;23311;48.776;9.162;2022-09-29T05:50:09;7.30;95.50
292;DHT22;23311;48.776;9.162;2022-09-29T05:52:37;7.30;95.50
292;DHT22;23311;48.776;9.162;2022-09-29T05:55:07;7.30;95.50
292;DHT22;23311;48.776;9.162;2022-09-29T05:57:38;7.50;95.50
292;DHT22;23311;48.776;9.162;2022-09-29T06:00:07;7.50;95.50
292;DHT22;23311;48.776;9.162;2022-09-29T06:02:35;7.50;95.50
292;DHT22;23311;48.776;9.162;2022-09-29T06:05:03;7.60;95.50
292;DHT22;23311;48.776;9.162;2022-09-29T06:07:32;7.70;95.50
292;DHT22;23311;48.776;9.162;2022-09-29T06:10:00;7.80;95.50
292;DHT22;23311;48.776;9.162;2022-09-29T06:12:32;7.90;95.50
292;DHT22;23311;48.776;9.162;2022-09-29T06:15:02;8.00;95.50
292;DHT22;23311;48.776;9.162;2022-09-29T06:17:30;8.10;95.50
292;DHT22;23311;48.776;9.162;2022-09-29T06:19:58;8.20;95.50
292;DHT22;23311;48.776;9.162;2022-09-29T06:22:26;8.30;95.50
292;DHT22;23311;48.776;9.162;2022-09-29T06:24:54;8.30;95.50
292;DHT22;23311;48.776;9.162;2022-09-29T06:27:23;8.30;95.50
292;DHT22;23311;48.776;9.162;2022-09-29T06:29:51;8.30;95.50
292;DHT22;23311;48.776;9.162;2022-09-29T06:32:20;8.50;95.50
292;DHT22;23311;48.776;9.162;2022-09-29T06:34:48;8.60;95.50
292;DHT22;23311;48.776;9.162;2022-09-29T06:37:34;8.70;95.50
292;DHT22;23311;48.776;9.162;2022-09-29T06:40:03;8.90;95.50
292;DHT22;23311;48.776;9.162;2022-09-29T06:42:36;9.00;95.50
292;DHT22;23311;48.776;9.162;2022-09-29T06:45:06;9.10;95.50
292;DHT22;23311;48.776;9.162;2022-09-29T06:47:35;9.20;95.50
292;DHT22;23311;48.776;9.162;2022-09-29T06:50:04;9.20;95.50
292;DHT22;23311;48.776;9.162;2022-09-29T06:52:46;9.20;95.50
292;DHT22;23311;48.776;9.162;2022-09-29T06:55:29;9.30;95.50
292;DHT22;23311;48.776;9.162;2022-09-29T06:57:57;9.30;95.50
292;DHT22;23311;48.776;9.162;2022-09-29T07:00:30;9.50;95.50
292;DHT22;23311;48.776;9.162;2022-09-29T07:03:00;9.70;95.50
292;DHT22;23311;48.776;9.162;2022-09-29T07:05:28;9.90;95.50
292;DHT22;23311;48.776;9.162;2022-09-29T07:07:58;9.90;95.50
292;DHT22;23311;48.776;9.162;2022-09-29T07:10:27;9.90;95.50
292;DHT22;23311;48.776;9.162;2022-09-29T07:12:55;9.80;95.50
292;DHT22;23311;48.776;9.162;2022-09-29T07:15:24;9.80;95.50
292;DHT22;23311;48.776;9.162;2022-09-29T07:17:58;9.90;95.50
292;DHT22;23311;48.776;9.162;2022-09-29T07:20:29;10.00;95.50
292;DHT22;23311;48.776;9.162;2022-09-29T07:22:57;10.20;95.50
292;DHT22;23311;48.776;9.162;2022-09-29T07:25:25;10.30;95.50
292;DHT22;23311;48.776;9.162;2022-09-29T07:28:13;10.40;95.50
292;DHT22;23311;48.776;9.162;2022-09-29T07:30:41;10.50;95.50
292;DHT22;23311;48.776;9.162;2022-09-29T07:33:09;10.50;95.50
292;DHT22;23311;48.776;9.162;2022-09-29T07:35:39;10.60;95.50
292;DHT22;23311;48.776;9.162;2022-09-29T07:38:07;10.70;95.50
292;DHT22;23311;48.776;9.162;2022-09-29T07:40:35;10.80;95.50
292;DHT22;23311;48.776;9.162;2022-09-29T07:43:03;10.90;95.50
292;DHT22;23311;48.776;9.162;2022-09-29T07:45:33;10.90;95.50
292;DHT22;23311;48.776;9.162;2022-09-29T07:48:01;10.90;95.50
292;DHT22;23311;48.776;9.162;2022-09-29T07:50:29;10.90;95.50
292;DHT22;23311;48.776;9.162;2022-09-29T07:52:59;11.10;95.50
292;DHT22;23311;48.776;9.162;2022-09-29T07:55:27;11.20;95.50
292;DHT22;23311;48.776;9.162;2022-09-29T07:57:55;11.30;95.50
292;DHT22;23311;48.776;9.162;2022-09-29T08:00:23;11.60;95.50
292;DHT22;23311;48.776;9.162;2022-09-29T08:02:51;11.80;95.50
292;DHT22;23311;48.776;9.162;2022-09-29T08:05:19;11.90;95.50
292;DHT22;23311;48.776;9.162;2022-09-29T08:07:50;12.20;95.50
292;DHT22;23311;48.776;9.162;2022-09-29T08:10:20;12.40;95.50
292;DHT22;23311;48.776;9.162;2022-09-29T08:12:48;12.30;95.50
292;DHT22;23311;48.776;9.162;2022-09-29T08:15:16;12.30;95.50
292;DHT22;23311;48.776;9.162;2022-09-29T08:17:44;12.50;95.50
292;DHT22;23311;48.776;9.162;2022-09-29T08:20:12;12.60;95.50
292;DHT22;23311;48.776;9.162;2022-09-29T08:22:41;12.60;95.50
292;DHT22;23311;48.776;9.162;2022-09-29T08:25:09;12.60;95.50
292;DHT22;23311;48.776;9.162;2022-09-29T08:27:38;12.30;95.50
292;DHT22;23311;48.776;9.162;2022-09-29T08:30:19;12.60;95.50
292;DHT22;23311;48.776;9.162;2022-09-29T08:32:51;13.00;95.50
292;DHT22;23311;48.776;9.162;2022-09-29T08:35:19;12.70;95.50
292;DHT22;23311;48.776;9.162;2022-09-29T08:37:47;13.30;95.50
292;DHT22;23311;48.776;9.162;2022-09-29T08:40:16;14.10;95.10
292;DHT22;23311;48.776;9.162;2022-09-29T08:42:53;14.10;94.50
292;DHT22;23311;48.776;9.162;2022-09-29T08:45:27;14.40;93.50
292;DHT22;23311;48.776;9.162;2022-09-29T08:48:03;14.60;92.70
292;DHT22;23311;48.776;9.162;2022-09-29T08:50:50;14.60;92.50
292;DHT22;23311;48.776;9.162;2022-09-29T08:53:23;14.60;92.10
292;DHT22;23311;48.776;9.162;2022-09-29T08:55:58;14.30;93.10
292;DHT22;23311;48.776;9.162;2022-09-29T08:58:29;14.30;93.30
292;DHT22;23311;48.776;9.162;2022-09-29T09:01:08;14.40;92.90
292;DHT22;23311;48.776;9.162;2022-09-29T09:03:58;14.70;92.20
292;DHT22;23311;48.776;9.162;2022-09-29T09:06:35;15.40;90.60
292;DHT22;23311;48.776;9.162;2022-09-29T09:09:23;15.80;89.40
292;DHT22;23311;48.776;9.162;2022-09-29T09:12:14;16.40;87.60
292;DHT22;23311;48.776;9.162;2022-09-29T09:15:16;16.20;87.00
292;DHT22;23311;48.776;9.162;2022-09-29T09:17:59;15.80;87.70
292;DHT22;23311;48.776;9.162;2022-09-29T09:20:33;14.40;90.10
292;DHT22;23311;48.776;9.162;2022-09-29T09:23:09;13.40;93.20
292;DHT22;23311;48.776;9.162;2022-09-29T09:25:45;13.20;94.40
292;DHT22;23311;48.776;9.162;2022-09-29T09:28:16;13.30;95.10
292;DHT22;23311;48.776;9.162;2022-09-29T09:30:48;14.00;93.30
292;DHT22;23311;48.776;9.162;2022-09-29T09:33:23;13.60;93.20
292;DHT22;23311;48.776;9.162;2022-09-29T09:36:02;13.80;93.90
292;DHT22;23311;48.776;9.162;2022-09-29T09:38:43;14.00;93.00
292;DHT22;23311;48.776;9.162;2022-09-29T09:41:14;14.30;92.60
292;DHT22;23311;48.776;9.162;2022-09-29T09:43:45;14.50;91.70
292;DHT22;23311;48.776;9.162;2022-09-29T09:46:22;15.10;90.10
292;DHT22;23311;48.776;9.162;2022-09-29T09:48:57;15.30;89.60
292;DHT22;23311;48.776;9.162;2022-09-29T09:51:37;15.50;89.20
292;DHT22;23311;48.776;9.162;2022-09-29T09:54:17;15.20;89.50
292;DHT22;23311;48.776;9.162;2022-09-29T09:57:07;15.20;89.50
292;DHT22;23311;48.776;9.162;2022-09-29T09:59:43;15.70;88.40
292;DHT22;23311;48.776;9.162;2022-09-29T10:02:22;15.70;87.80
292;DHT22;23311;48.776;9.162;2022-09-29T10:04:51;16.10;86.60
292;DHT22;23311;48.776;9.162;2022-09-29T10:07:22;15.80;86.50
292;DHT22;23311;48.776;9.162;2022-09-29T10:09:51;16.00;86.30
292;DHT22;23311;48.776;9.162;2022-09-29T10:12:21;16.20;86.50
292;DHT22;23311;48.776;9.162;2022-09-29T10:14:54;16.30;86.00
292;DHT22;23311;48.776;9.162;2022-09-29T10:17:32;16.60;85.20
292;DHT22;23311;48.776;9.162;2022-09-29T10:20:05;16.50;85.30
292;DHT22;23311;48.776;9.162;2022-09-29T10:22:34;16.40;84.80
292;DHT22;23311;48.776;9.162;2022-09-29T10:25:11;16.50;84.40
292;DHT22;23311;48.776;9.162;2022-09-29T10:27:44;16.20;84.90
292;DHT22;23311;48.776;9.162;2022-09-29T10:30:18;16.40;83.80
292;DHT22;23311;48.776;9.162;2022-09-29T10:32:52;15.80;85.90
292;DHT22;23311;48.776;9.162;2022-09-29T10:35:24;16.50;83.90
292;DHT22;23311;48.776;9.162;2022-09-29T10:37:59;16.80;83.20
292;DHT22;23311;48.776;9.162;2022-09-29T10:40:28;17.90;80.60
292;DHT22;23311;48.776;9.162;2022-09-29T10:42:57;18.40;78.30
292;DHT22;23311;48.776;9.162;2022-09-29T10:45:27;18.40;78.40
292;DHT22;23311;48.776;9.162;2022-09-29T10:48:11;18.50;77.80
292;DHT22;23311;48.776;9.162;2022-09-29T10:50:48;18.20;77.90
292;DHT22;23311;48.776;9.162;2022-09-29T10:53:22;17.80;78.40
292;DHT22;23311;48.776;9.162;2022-09-29T10:55:53;17.30;79.80
292;DHT22;23311;48.776;9.162;2022-09-29T10:58:27;18.10;78.70
292;DHT22;23311;48.776;9.162;2022-09-29T11:01:17;18.50;77.80
292;DHT22;23311;48.776;9.162;2022-09-29T11:03:49;18.20;77.20
292;DHT22;23311;48.776;9.162;2022-09-29T11:06:25;18.10;76.90
292;DHT22;23311;48.776;9.162;2022-09-29T11:08:59;17.50;77.40
292;DHT22;23311;48.776;9.162;2022-09-29T11:11:29;18.10;76.30
292;DHT22;23311;48.776;9.162;2022-09-29T11:13:58;18.60;76.10
292;DHT22;23311;48.776;9.162;2022-09-29T11:16:29;18.50;76.00
292;DHT22;23311;48.776;9.162;2022-09-29T11:19:04;18.50;76.60
292;DHT22;23311;48.776;9.162;2022-09-29T11:25:08;18.10;76.70
292;DHT22;23311;48.776;9.162;2022-09-29T11:27:57;18.10;77.10
292;DHT22;23311;48.776;9.162;2022-09-29T11:30:35;18.30;76.80
292;DHT22;23311;48.776;9.162;2022-09-29T11:33:17;18.20;76.40
292;DHT22;23311;48.776;9.162;2022-09-29T11:35:53;18.20;76.40
292;DHT22;23311;48.776;9.162;2022-09-29T11:38:40;17.50;78.40
292;DHT22;23311;48.776;9.162;2022-09-29T11:41:34;17.00;79.70
292;DHT22;23311;48.776;9.162;2022-09-29T11:44:14;17.20;79.90
292;DHT22;23311;48.776;9.162;2022-09-29T11:46:54;17.90;78.50
292;DHT22;23311;48.776;9.162;2022-09-29T11:49:54;18.30;77.70
292;DHT22;23311;48.776;9.162;2022-09-29T11:52:37;18.30;77.80
292;DHT22;23311;48.776;9.162;2022-09-29T11:55:23;17.80;78.60
292;DHT22;23311;48.776;9.162;2022-09-29T11:58:00;17.10;80.60
292;DHT22;23311;48.776;9.162;2022-09-29T12:00:45;16.80;81.30
292;DHT22;23311;48.776;9.162;2022-09-29T12:03:22;16.90;81.10
292;DHT22;23311;48.776;9.162;2022-09-29T12:06:14;16.80;81.50
292;DHT22;23311;48.776;9.162;2022-09-29T12:08:59;16.80;81.10
292;DHT22;23311;48.776;9.162;2022-09-29T12:11:37;16.60;81.90
292;DHT22;23311;48.776;9.162;2022-09-29T12:14:35;16.70;81.70
292;DHT22;23311;48.776;9.162;2022-09-29T12:17:11;16.50;81.50
292;DHT22;23311;48.776;9.162;2022-09-29T12:19:41;16.50;81.90
292;DHT22;23311;48.776;9.162;2022-09-29T12:22:14;16.80;81.80
292;DHT22;23311;48.776;9.162;2022-09-29T12:24:47;17.10;80.40
292;DHT22;23311;48.776;9.162;2022-09-29T12:27:20;16.90;79.80
292;DHT22;23311;48.776;9.162;2022-09-29T12:29:52;16.70;80.70
292;DHT22;23311;48.776;9.162;2022-09-29T12:32:26;16.60;81.10
292;DHT22;23311;48.776;9.162;2022-09-29T12:35:00;16.90;80.70
292;DHT22;23311;48.776;9.162;2022-09-29T12:37:33;16.90;80.10
292;DHT22;23311;48.776;9.162;2022-09-29T12:40:09;16.90;79.60
292;DHT22;23311;48.776;9.162;2022-09-29T12:42:52;17.10;79.00
292;DHT22;23311;48.776;9.162;2022-09-29T12:45:29;17.00;79.10
292;DHT22;23311;48.776;9.162;2022-09-29T12:48:13;17.10;78.70
292;DHT22;23311;48.776;9.162;2022-09-29T12:50:48;17.20;78.40
292;DHT22;23311;48.776;9.162;2022-09-29T12:53:21;16.90;78.50
292;DHT22;23311;48.776;9.162;2022-09-29T12:55:57;16.60;78.60
292;DHT22;23311;48.776;9.162;2022-09-29T12:58:32;16.30;79.40
292;DHT22;23311;48.776;9.162;2022-09-29T13:01:17;16.30;79.70
292;DHT22;23311;48.776;9.162;2022-09-29T13:04:27;16.20;80.20
292;DHT22;23311;48.776;9.162;2022-09-29T13:07:29;16.00;80.20
292;DHT22;23311;48.776;9.162;2022-09-29T13:10:14;16.00;80.70
292;DHT22;23311;48.776;9.162;2022-09-29T13:13:07;16.00;80.50
292;DHT22;23311;48.776;9.162;2022-09-29T13:15:57;16.00;80.60
292;DHT22;23311;48.776;9.162;2022-09-29T13:18:45;16.10;80.10
292;DHT22;23311;48.776;9.162;2022-09-29T13:21:31;15.70;80.40
292;DHT22;23311;48.776;9.162;2022-09-29T13:24:14;15.70;80.80
292;DHT22;23311;48.776;9.162;2022-09-29T13:27:08;15.80;80.90
292;DHT22;23311;48.776;9.162;2022-09-29T13:29:43;15.50;81.60
292;DHT22;23311;48.776;9.162;2022-09-29T13:32:14;15.50;81.70
292;DHT22;23311;48.776;9.162;2022-09-29T13:34:47;15.40;82.40
292;DHT22;23311;48.776;9.162;2022-09-29T13:37:18;15.30;82.20
292;DHT22;23311;48.776;9.162;2022-09-29T13:39:53;15.10;82.30
292;DHT22;23311;48.776;9.162;2022-09-29T13:42:41;15.20;82.90
292;DHT22;23311;48.776;9.162;2022-09-29T13:45:36;15.30;82.70
292;DHT22;23311;48.776;9.162;2022-09-29T13:51:46;15.50;83.70
292;DHT22;23311;48.776;9.162;2022-09-29T13:54:29;15.40;84.10
292;DHT22;23311;48.776;9.162;2022-09-29T14:00:29;15.10;83.90
292;DHT22;23311;48.776;9.162;2022-09-29T14:03:16;15.20;83.90
292;DHT22;23311;48.776;9.162;2022-09-29T14:06:16;15.00;84.30
292;DHT22;23311;48.776;9.162;2022-09-29T14:09:06;15.10;84.20
292;DHT22;23311;48.776;9.162;2022-09-29T14:11:40;15.10;84.20
292;DHT22;23311;48.776;9.162;2022-09-29T14:14:15;15.00;84.60
292;DHT22;23311;48.776;9.162;2022-09-29T14:16:51;14.90;85.10
292;DHT22;23311;48.776;9.162;2022-09-29T14:19:33;15.00;84.90
292;DHT22;23311;48.776;9.162;2022-09-29T14:22:03;15.00;85.10
292;DHT22;23311;48.776;9.162;2022-09-29T14:24:43;14.90;85.40
292;DHT22;23311;48.776;9.162;2022-09-29T14:27:30;14.70;86.30
292;DHT22;23311;48.776;9.162;2022-09-29T14:30:14;14.80;86.70
292;DHT22;23311;48.776;9.162;2022-09-29T14:32:50;14.80;86.70
292;DHT22;23311;48.776;9.162;2022-09-29T14:35:23;14.80;86.60
292;DHT22;23311;48.776;9.162;2022-09-29T14:37:59;14.70;86.70
292;DHT22;23311;48.776;9.162;2022-09-29T14:40:29;14.60;87.10
292;DHT22;23311;48.776;9.162;2022-09-29T14:43:11;14.60;87.00
292;DHT22;23311;48.776;9.162;2022-09-29T14:46:14;14.70;86.70
292;DHT22;23311;48.776;9.162;2022-09-29T14:52:36;14.70;86.40
292;DHT22;23311;48.776;9.162;2022-09-29T14:55:14;14.60;86.40
292;DHT22;23311;48.776;9.162;2022-09-29T14:58:11;14.50;86.80
292;DHT22;23311;48.776;9.162;2022-09-29T15:00:54;14.50;86.80
292;DHT22;23311;48.776;9.162;2022-09-29T15:03:28;14.50;87.20
292;DHT22;23311;48.776;9.162;2022-09-29T15:06:11;14.70;86.80
292;DHT22;23311;48.776;9.162;2022-09-29T15:08:40;14.80;86.80
292;DHT22;23311;48.776;9.162;2022-09-29T15:11:29;14.70;86.50
292;DHT22;23311;48.776;9.162;2022-09-29T15:13:59;14.80;86.60
292;DHT22;23311;48.776;9.162;2022-09-29T15:16:33;14.70;87.00
292;DHT22;23311;48.776;9.162;2022-09-29T15:19:20;14.70;87.20
292;DHT22;23311;48.776;9.162;2022-09-29T15:22:02;14.70;87.10
292;DHT22;23311;48.776;9.162;2022-09-29T15:24:44;14.50;87.70
292;DHT22;23311;48.776;9.162;2022-09-29T15:27:15;14.60;87.50
292;DHT22;23311;48.776;9.162;2022-09-29T15:29:45;14.50;87.90
292;DHT22;23311;48.776;9.162;2022-09-29T15:32:20;14.40;88.80
292;DHT22;23311;48.776;9.162;2022-09-29T15:34:50;14.40;88.70
292;DHT22;23311;48.776;9.162;2022-09-29T15:37:23;14.50;88.60
292;DHT22;23311;48.776;9.162;2022-09-29T15:39:51;14.30;89.00
292;DHT22;23311;48.776;9.162;2022-09-29T15:42:21;14.40;88.90
292;DHT22;23311;48.776;9.162;2022-09-29T15:44:52;14.40;88.90
292;DHT22;23311;48.776;9.162;2022-09-29T15:47:28;14.30;89.10
292;DHT22;23311;48.776;9.162;2022-09-29T15:50:04;14.30;89.40
292;DHT22;23311;48.776;9.162;2022-09-29T15:52:44;14.20;89.80
292;DHT22;23311;48.776;9.162;2022-09-29T15:55:15;14.20;89.60
292;DHT22;23311;48.776;9.162;2022-09-29T15:57:45;14.20;89.60
292;DHT22;23311;48.776;9.162;2022-09-29T16:00:42;14.20;89.70
292;DHT22;23311;48.776;9.162;2022-09-29T16:03:14;14.10;89.90
292;DHT22;23311;48.776;9.162;2022-09-29T16:05:56;14.00;89.80
292;DHT22;23311;48.776;9.162;2022-09-29T16:08:27;14.00;90.00
292;DHT22;23311;48.776;9.162;2022-09-29T16:10:59;13.90;89.90
292;DHT22;23311;48.776;9.162;2022-09-29T16:13:30;13.80;90.30
292;DHT22;23311;48.776;9.162;2022-09-29T16:16:02;13.70;90.40
292;DHT22;23311;48.776;9.162;2022-09-29T16:18:36;13.70;90.50
292;DHT22;23311;48.776;9.162;2022-09-29T16:21:06;13.60;90.90
292;DHT22;23311;48.776;9.162;2022-09-29T16:23:40;13.60;90.40
292;DHT22;23311;48.776;9.162;2022-09-29T16:26:15;13.60;90.40
292;DHT22;23311;48.776;9.162;2022-09-29T16:29:21;13.50;90.90
292;DHT22;23311;48.776;9.162;2022-09-29T16:31:50;13.40;91.20
292;DHT22;23311;48.776;9.162;2022-09-29T16:34:28;13.30;91.40
292;DHT22;23311;48.776;9.162;2022-09-29T16:36:59;13.30;91.40
292;DHT22;23311;48.776;9.162;2022-09-29T16:39:30;13.20;92.10
292;DHT22;23311;48.776;9.162;2022-09-29T16:42:02;13.10;92.50
292;DHT22;23311;48.776;9.162;2022-09-29T16:44:34;13.00;93.10
292;DHT22;23311;48.776;9.162;2022-09-29T16:47:12;13.00;92.90
292;DHT22;23311;48.776;9.162;2022-09-29T16:49:47;12.90;93.50
292;DHT22;23311;48.776;9.162;2022-09-29T16:52:19;12.80;94.30
292;DHT22;23311;48.776;9.162;2022-09-29T16:54:51;12.70;94.70
292;DHT22;23311;48.776;9.162;2022-09-29T16:57:23;12.70;95.10
292;DHT22;23311;48.776;9.162;2022-09-29T16:59:53;12.60;95.50
292;DHT22;23311;48.776;9.162;2022-09-29T17:02:23;12.50;95.50
292;DHT22;23311;48.776;9.162;2022-09-29T17:04:52;12.40;95.50
292;DHT22;23311;48.776;9.162;2022-09-29T17:07:22;12.30;95.50
292;DHT22;23311;48.776;9.162;2022-09-29T17:09:55;12.10;95.50